地図

経路データ

SID SEASON NUMBER BASIN SUBBASIN NAME ISO_TIME NATURE LAT LON WMO_WIND WMO_PRES WMO_AGENCY TRACK_TYPE DIST2LAND LANDFALL IFLAG USA_AGENCY USA_ATCF_ID USA_LAT USA_LON USA_RECORD USA_STATUS USA_WIND USA_PRES USA_SSHS USA_R34_NE USA_R34_SE USA_R34_SW USA_R34_NW USA_R50_NE USA_R50_SE USA_R50_SW USA_R50_NW USA_R64_NE USA_R64_SE USA_R64_SW USA_R64_NW USA_POCI USA_ROCI USA_RMW USA_EYE TOKYO_LAT TOKYO_LON TOKYO_GRADE TOKYO_WIND TOKYO_PRES TOKYO_R50_DIR TOKYO_R50_LONG TOKYO_R50_SHORT TOKYO_R30_DIR TOKYO_R30_LONG TOKYO_R30_SHORT TOKYO_LAND CMA_LAT CMA_LON CMA_CAT CMA_WIND CMA_PRES HKO_LAT HKO_LON HKO_CAT HKO_WIND HKO_PRES NEWDELHI_LAT NEWDELHI_LON NEWDELHI_GRADE NEWDELHI_WIND NEWDELHI_PRES NEWDELHI_CI NEWDELHI_DP NEWDELHI_POCI REUNION_LAT REUNION_LON REUNION_TYPE REUNION_WIND REUNION_PRES REUNION_TNUM REUNION_CI REUNION_RMW REUNION_R34_NE REUNION_R34_SE REUNION_R34_SW REUNION_R34_NW REUNION_R50_NE REUNION_R50_SE REUNION_R50_SW REUNION_R50_NW REUNION_R64_NE REUNION_R64_SE REUNION_R64_SW REUNION_R64_NW BOM_LAT BOM_LON BOM_TYPE BOM_WIND BOM_PRES BOM_TNUM BOM_CI BOM_RMW BOM_R34_NE BOM_R34_SE BOM_R34_SW BOM_R34_NW BOM_R50_NE BOM_R50_SE BOM_R50_SW BOM_R50_NW BOM_R64_NE BOM_R64_SE BOM_R64_SW BOM_R64_NW BOM_ROCI BOM_POCI BOM_EYE BOM_POS_METHOD BOM_PRES_METHOD NADI_LAT NADI_LON NADI_CAT NADI_WIND NADI_PRES WELLINGTON_LAT WELLINGTON_LON WELLINGTON_WIND WELLINGTON_PRES DS824_LAT DS824_LON DS824_STAGE DS824_WIND DS824_PRES TD9636_LAT TD9636_LON TD9636_STAGE TD9636_WIND TD9636_PRES TD9635_LAT TD9635_LON TD9635_WIND TD9635_PRES TD9635_ROCI NEUMANN_LAT NEUMANN_LON NEUMANN_CLASS NEUMANN_WIND NEUMANN_PRES MLC_LAT MLC_LON MLC_CLASS MLC_WIND MLC_PRES USA_GUST BOM_GUST BOM_GUST_PER REUNION_GUST REUNION_GUST_PER USA_SEAHGT USA_SEARAD_NE USA_SEARAD_SE USA_SEARAD_SW USA_SEARAD_NW STORM_SPEED STORM_DIR
1911338N10150 1911 72 WP MM NOT_NAMED 1911-12-03 16:00:00 NR 9.90000 150.000 main 1375 1357 __________O___ -1 9.90000 150.000 7 26 270
1911338N10150 1911 72 WP MM NOT_NAMED 1911-12-03 18:00:00 NR 9.90735 149.134 main 1357 1345 __________P___ -1 9.90735 149.134 7 25 271
1911338N10150 1911 72 WP MM NOT_NAMED 1911-12-03 21:00:00 NR 9.91959 147.860 main 1345 1344 __________P___ -1 9.91959 147.860 7 25 271
1911338N10150 1911 72 WP MM NOT_NAMED 1911-12-04 00:00:00 NR 9.94105 146.649 main 1344 1344 __________P___ -1 9.94105 146.649 7 23 272
1911338N10150 1911 72 WP MM NOT_NAMED 1911-12-04 03:00:00 NR 9.98095 145.540 main 1361 1361 __________P___ -1 9.98095 145.540 7 21 272
1911338N10150 1911 72 WP MM NOT_NAMED 1911-12-04 04:00:00 NR 10.0000 145.200 main 1364 1364 __________O___ -1 10.0000 145.200 7 19 274
1911338N10150 1911 72 WP MM NOT_NAMED 1911-12-04 06:00:00 NR 10.0480 144.568 main 1373 1386 __________P___ -1 10.0480 144.568 7 18 275
1911338N10150 1911 72 WP MM NOT_NAMED 1911-12-04 09:00:00 NR 10.1402 143.720 main 1404 1404 __________P___ -1 10.1402 143.720 7 16 277
1911338N10150 1911 72 WP MM NOT_NAMED 1911-12-04 12:00:00 NR 10.2483 142.957 main 1425 1408 __________P___ -1 10.2483 142.957 7 15 279
1911338N10150 1911 72 WP MM NOT_NAMED 1911-12-04 15:00:00 NR 10.3624 142.237 main 1415 1408 __________P___ -1 10.3624 142.237 7 14 279
1911338N10150 1911 72 WP MM NOT_NAMED 1911-12-04 16:00:00 NR 10.4000 142.000 main 1408 1399 __________O___ -1 10.4000 142.000 7 15 278
1911338N10150 1911 72 WP MM NOT_NAMED 1911-12-04 18:00:00 NR 10.4664 141.484 main 1404 1381 __________P___ -1 10.4664 141.484 7 15 278
1911338N10150 1911 72 WP MM NOT_NAMED 1911-12-04 21:00:00 NR 10.5662 140.728 main 1383 1359 __________P___ -1 10.5662 140.728 7 15 278
1911338N10150 1911 72 WP MM NOT_NAMED 1911-12-05 00:00:00 NR 10.6663 140.003 main 1366 1344 __________P___ -1 10.6663 140.003 7 14 278
1911338N10150 1911 72 WP MM NOT_NAMED 1911-12-05 03:00:00 NR 10.7666 139.318 main 1352 1345 __________P___ -1 10.7666 139.318 7 13 279
1911338N10150 1911 72 WP MM NOT_NAMED 1911-12-05 04:00:00 NR 10.8000 139.100 main 1345 1336 __________O___ -1 10.8000 139.100 7 13 279
1911338N10150 1911 72 WP MM NOT_NAMED 1911-12-05 06:00:00 NR 10.8661 138.682 main 1344 1315 __________P___ -1 10.8661 138.682 7 12 280
1911338N10150 1911 72 WP MM NOT_NAMED 1911-12-05 09:00:00 NR 10.9657 138.094 main 1315 1254 __________P___ -1 10.9657 138.094 7 11 280
1911338N10150 1911 72 WP MM NOT_NAMED 1911-12-05 12:00:00 NR 11.0658 137.534 main 1254 1202 __________P___ -1 11.0658 137.534 7 11 280
1911338N10150 1911 72 WP MM NOT_NAMED 1911-12-05 15:00:00 NR 11.1664 136.984 main 1202 1181 __________P___ -1 11.1664 136.984 7 11 281
1911338N10150 1911 72 WP MM NOT_NAMED 1911-12-05 16:00:00 NR 11.2000 136.800 main 1181 1149 __________O___ -1 11.2000 136.800 7 10 280
1911338N10150 1911 72 WP MM NOT_NAMED 1911-12-05 18:00:00 NR 11.2552 136.461 main 1152 1098 __________P___ -1 11.2552 136.461 7 10 279
1911338N10150 1911 72 WP MM NOT_NAMED 1911-12-05 21:00:00 NR 11.3381 135.953 main 1098 1036 __________P___ -1 11.3381 135.953 7 11 280
1911338N10150 1911 72 WP MM NOT_NAMED 1911-12-06 00:00:00 NR 11.4329 135.400 main 1036 968 __________P___ -1 11.4329 135.400 7 12 280
1911338N10150 1911 72 WP MM NOT_NAMED 1911-12-06 03:00:00 NR 11.5525 134.748 main 968 947 __________P___ -1 11.5525 134.748 7 13 281
1911338N10150 1911 72 WP MM NOT_NAMED 1911-12-06 04:00:00 NR 11.6000 134.500 main 947 887 __________O___ -1 11.6000 134.500 7 17 281
1911338N10150 1911 72 WP MM NOT_NAMED 1911-12-06 06:00:00 NR 11.7034 133.920 main 887 780 __________P___ -1 11.7034 133.920 7 19 281
1911338N10150 1911 72 WP MM NOT_NAMED 1911-12-06 09:00:00 NR 11.8831 132.942 main 780 676 __________P___ -1 11.8831 132.942 7 20 281
1911338N10150 1911 72 WP MM NOT_NAMED 1911-12-06 12:00:00 NR 12.0892 131.894 main 676 564 __________P___ -1 12.0892 131.894 7 21 282
1911338N10150 1911 72 WP MM NOT_NAMED 1911-12-06 15:00:00 NR 12.3186 130.841 main 564 545 __________P___ -1 12.3186 130.841 7 21 283
1911338N10150 1911 72 WP MM NOT_NAMED 1911-12-06 16:00:00 NR 12.4000 130.500 main 535 469 __________O___ -1 12.4000 130.500 7 20 284
1911338N10150 1911 72 WP MM NOT_NAMED 1911-12-06 18:00:00 NR 12.5580 129.843 main 469 375 __________P___ -1 12.5580 129.843 7 20 285
1911338N10150 1911 72 WP MM NOT_NAMED 1911-12-06 21:00:00 NR 12.8144 128.882 main 375 289 __________P___ -1 12.8144 128.882 7 19 286
1911338N10150 1911 72 WP MM NOT_NAMED 1911-12-07 00:00:00 NR 13.0933 127.976 main 289 228 __________P___ -1 13.0933 127.976 7 18 289
1911338N10150 1911 72 WP MM NOT_NAMED 1911-12-07 03:00:00 NR 13.3946 127.151 main 228 210 __________P___ -1 13.3946 127.151 7 17 291
1911338N10150 1911 72 WP MM NOT_NAMED 1911-12-07 04:00:00 NR 13.5000 126.900 main 210 186 __________O___ -1 13.5000 126.900 7 15 294
1911338N10150 1911 72 WP MM NOT_NAMED 1911-12-07 06:00:00 NR 13.7045 126.439 main 186 151 __________P___ -1 13.7045 126.439 7 14 297
1911338N10150 1911 72 WP MM NOT_NAMED 1911-12-07 09:00:00 NR 14.0309 125.830 main 151 106 __________P___ -1 14.0309 125.830 7 13 301
1911338N10150 1911 72 WP MM NOT_NAMED 1911-12-07 12:00:00 NR 14.3837 125.287 main 112 93 __________P___ -1 14.3837 125.287 7 13 306
1911338N10150 1911 72 WP MM NOT_NAMED 1911-12-07 15:00:00 NR 14.7658 124.772 main 104 99 __________P___ -1 14.7658 124.772 7 13 308
1911338N10150 1911 72 WP MM NOT_NAMED 1911-12-07 16:00:00 NR 14.9000 124.600 main 105 103 __________O___ -1 14.9000 124.600 2 14 308
1911338N10150 1911 72 WP MM NOT_NAMED 1911-12-07 18:00:00 NR 15.1875 124.212 main 134 134 __________P___ -1 15.1875 124.212 2 14 309
1911338N10150 1911 72 WP MM NOT_NAMED 1911-12-07 21:00:00 NR 15.6445 123.636 main 164 96 __________P___ -1 15.6445 123.636 2 14 310
1911338N10150 1911 72 WP MM NOT_NAMED 1911-12-08 00:00:00 NR 16.1099 123.081 main 96 30 __________P___ -1 16.1099 123.081 2 14 312
1911338N10150 1911 72 WP MM NOT_NAMED 1911-12-08 03:00:00 NR 16.5585 122.562 main 30 10 __________P___ -1 16.5585 122.562 2 13 312
1911338N10150 1911 72 WP MM NOT_NAMED 1911-12-08 04:00:00 NR 16.7000 122.400 main 10 0 __________O___ -1 16.7000 122.400 4 12 310
1911338N10150 1911 72 WP MM NOT_NAMED 1911-12-08 06:00:00 NR 16.9427 122.085 main 0 0 __________P___ -1 16.9427 122.085 4 11 309
1911338N10150 1911 72 WP MM NOT_NAMED 1911-12-08 09:00:00 NR 17.2815 121.651 main 0 0 __________P___ -1 17.2815 121.651 4 10 310
1911338N10150 1911 72 WP MM NOT_NAMED 1911-12-08 12:00:00 NR 17.6151 121.260 main 0 0 __________P___ -1 17.6151 121.260 4 10 314
1911338N10150 1911 72 WP MM NOT_NAMED 1911-12-08 15:00:00 NR 17.9714 120.909 main 0 0 __________P___ -1 17.9714 120.909 4 10 318
1911338N10150 1911 72 WP MM NOT_NAMED 1911-12-08 16:00:00 NR 18.1000 120.800 main 0 0 __________O___ -1 18.1000 120.800 4 13 314
1911338N10150 1911 72 WP MM NOT_NAMED 1911-12-08 18:00:00 NR 18.4027 120.436 main 21 21 __________P___ -1 18.4027 120.436 4 14 313
1911338N10150 1911 72 WP MM NOT_NAMED 1911-12-08 21:00:00 NR 18.8880 119.917 main 92 92 __________P___ -1 18.8880 119.917 4 13 320
1911338N10150 1911 72 WP MM NOT_NAMED 1911-12-09 00:00:00 NR 19.3821 119.579 main 153 153 __________P___ -1 19.3821 119.579 4 10 342
1911338N10150 1911 72 WP MM NOT_NAMED 1911-12-09 03:00:00 NR 19.8535 119.590 main 192 192 __________P___ -1 19.8535 119.590 4 9 10
1911338N10150 1911 72 WP MM NOT_NAMED 1911-12-09 04:00:00 NR 20.0000 119.700 main 194 186 __________O___ -1 20.0000 119.700 4 14 51
1911338N10150 1911 72 WP MM NOT_NAMED 1911-12-09 06:00:00 NR 20.2744 120.152 main 186 145 __________P___ -1 20.2744 120.152 4 19 65
1911338N10150 1911 72 WP MM NOT_NAMED 1911-12-09 09:00:00 NR 20.6480 121.205 main 148 140 __________P___ -1 20.6480 121.205 4 24 73
1911338N10150 1911 72 WP MM NOT_NAMED 1911-12-09 12:00:00 NR 20.9677 122.552 main 202 202 __________P___ -1 20.9677 122.552 4 27 78
1911338N10150 1911 72 WP MM NOT_NAMED 1911-12-09 15:00:00 NR 21.2272 124.017 main 329 339 __________P___ -1 21.2272 124.017 4 28 80
1911338N10150 1911 72 WP MM NOT_NAMED 1911-12-09 16:00:00 NR 21.3000 124.500 main 377 377 __________O___ -1 21.3000 124.500 2 27 81
1911338N10150 1911 72 WP MM NOT_NAMED 1911-12-09 18:00:00 NR 21.4262 125.431 main 453 462 __________P___ -1 21.4262 125.431 2 25 83
1911338N10150 1911 72 WP MM NOT_NAMED 1911-12-09 21:00:00 NR 21.5747 126.746 main 570 579 __________P___ -1 21.5747 126.746 2 24 84
1911338N10150 1911 72 WP MM NOT_NAMED 1911-12-10 00:00:00 NR 21.6865 127.993 main 696 706 __________P___ -1 21.6865 127.993 2 23 85
1911338N10150 1911 72 WP MM NOT_NAMED 1911-12-10 03:00:00 NR 21.7741 129.201 main 804 814 __________P___ -1 21.7741 129.201 2 22 86
1911338N10150 1911 72 WP MM NOT_NAMED 1911-12-10 04:00:00 NR 21.8000 129.600 main 842 __________O___ -1 21.8000 129.600 2 22 86

デジタル台風データ・検索

IBTrACS Databaseについて

本データベースは、米国NOAAが公開する1842年以降の世界の熱帯低気圧のベストトラックデータアーカイブInternational Best Track Archive for Climate Stewardship (IBTrACS)を、ウェブで閲覧しやすい形式に変換したものです。

最終更新日:2021-12-01